createdAt,value
2023-01-17T00:01:54.990Z,211.55
2023-01-17T00:04:40.842Z,233.55
2023-01-17T00:07:29.308Z,270.95
2023-01-17T00:09:58.537Z,257.25
2023-01-17T00:12:28.543Z,338.40
2023-01-17T00:14:59.611Z,361.23
2023-01-17T00:17:29.620Z,390.35
2023-01-17T00:20:17.706Z,368.70
2023-01-17T00:23:04.538Z,384.85
2023-01-17T00:25:52.762Z,371.95
2023-01-17T00:28:20.052Z,414.65
2023-01-17T00:30:48.686Z,422.45
2023-01-17T00:33:16.049Z,399.65
2023-01-17T00:35:43.528Z,394.83
2023-01-17T00:38:12.214Z,417.20
2023-01-17T00:40:41.010Z,395.63
2023-01-17T00:43:28.159Z,424.05
2023-01-17T00:46:15.394Z,426.23
2023-01-17T00:49:01.782Z,392.08
2023-01-17T00:51:48.647Z,355.65
2023-01-17T00:54:35.173Z,381.17
2023-01-17T00:57:21.936Z,371.25
2023-01-17T01:00:07.923Z,375.08
2023-01-17T01:02:55.733Z,320.90
2023-01-17T01:05:41.864Z,335.05
2023-01-17T01:08:38.656Z,282.25
2023-01-17T01:11:28.805Z,318.63
2023-01-17T01:14:14.710Z,306.45
2023-01-17T01:17:00.596Z,371.48
2023-01-17T01:19:48.049Z,362.30
2023-01-17T01:22:34.145Z,309.50
2023-01-17T01:25:20.286Z,336.35
2023-01-17T01:28:06.204Z,308.80
2023-01-17T01:30:52.065Z,281.90
2023-01-17T01:33:19.402Z,346.45
2023-01-17T01:35:50.635Z,275.65
2023-01-17T01:38:19.594Z,322.77
2023-01-17T01:40:52.871Z,271.92
2023-01-17T01:43:23.278Z,274.65
2023-01-17T01:45:56.291Z,252.70
2023-01-17T01:48:34.917Z,247.43
2023-01-17T01:51:07.169Z,238.55
2023-01-17T01:53:38.972Z,205.95
2023-01-17T01:56:10.751Z,191.52
2023-01-17T01:58:39.713Z,216.25
2023-01-17T02:01:09.429Z,249.18
2023-01-17T02:03:38.766Z,206.32
2023-01-17T02:06:16.981Z,189.00
2023-01-17T02:08:45.859Z,194.98
2023-01-17T02:11:14.899Z,162.05
2023-01-17T02:13:43.992Z,163.77
2023-01-17T02:16:22.168Z,190.93
2023-01-17T02:18:58.440Z,185.82
2023-01-17T02:21:30.818Z,187.05
2023-01-17T02:24:42.761Z,155.45
2023-01-17T02:27:21.774Z,175.23
2023-01-17T02:30:32.776Z,149.35
2023-01-17T02:33:26.492Z,156.40
2023-01-17T02:35:59.899Z,169.25
2023-01-17T02:38:35.335Z,172.02
2023-01-17T02:41:07.990Z,160.32
2023-01-17T02:43:37.747Z,155.65
2023-01-17T02:46:07.723Z,157.27
2023-01-17T02:48:39.180Z,127.85
2023-01-17T02:51:36.712Z,164.05
2023-01-17T02:54:49.786Z,158.40
2023-01-17T02:57:36.513Z,152.55
2023-01-17T03:00:10.701Z,158.98
2023-01-17T03:02:44.060Z,151.20
2023-01-17T03:05:18.172Z,130.95
2023-01-17T03:07:48.577Z,155.10
2023-01-17T03:10:20.500Z,164.27
2023-01-17T03:12:49.153Z,172.32
2023-01-17T03:15:18.655Z,156.75
2023-01-17T03:17:49.851Z,162.35
2023-01-17T03:20:22.319Z,178.35
2023-01-17T03:22:51.130Z,172.77
2023-01-17T03:25:19.677Z,163.88
2023-01-17T03:27:48.414Z,151.35
2023-01-17T03:30:17.690Z,168.32
2023-01-17T03:32:46.178Z,184.98
2023-01-17T03:35:14.985Z,167.90
2023-01-17T03:37:45.069Z,153.30
2023-01-17T03:40:13.890Z,165.82
2023-01-17T03:42:42.893Z,181.52
2023-01-17T03:45:12.553Z,169.60
2023-01-17T03:47:41.081Z,150.98
2023-01-17T03:50:10.783Z,179.13
2023-01-17T03:52:39.359Z,168.88
2023-01-17T03:55:10.510Z,186.52
2023-01-17T03:57:39.062Z,187.18
2023-01-17T04:00:09.325Z,185.15
2023-01-17T04:02:37.970Z,180.60
2023-01-17T04:05:07.037Z,186.55
2023-01-17T04:07:35.678Z,195.18
2023-01-17T04:10:04.526Z,185.20
2023-01-17T04:12:34.436Z,174.50
2023-01-17T04:15:02.938Z,191.75
2023-01-17T04:17:31.518Z,189.40
2023-01-17T04:20:00.009Z,186.82
2023-01-17T04:22:28.796Z,170.10
2023-01-17T04:24:57.792Z,206.75
2023-01-17T04:27:26.370Z,217.55
2023-01-17T04:29:56.795Z,192.82
2023-01-17T04:32:25.440Z,197.63
2023-01-17T04:34:54.037Z,180.43
2023-01-17T04:37:22.493Z,216.40
2023-01-17T04:39:51.155Z,173.75
2023-01-17T04:42:19.633Z,179.10
2023-01-17T04:44:48.145Z,177.85
2023-01-17T04:47:18.347Z,217.93
2023-01-17T04:49:47.156Z,221.27
2023-01-17T04:52:18.769Z,173.50
2023-01-17T04:54:49.367Z,182.90
2023-01-17T04:57:18.149Z,182.45
2023-01-17T04:59:47.143Z,186.05
2023-01-17T05:02:17.843Z,189.15
2023-01-17T05:04:46.542Z,183.98
2023-01-17T05:07:15.433Z,179.48
2023-01-17T05:09:44.857Z,184.20
2023-01-17T05:12:13.465Z,182.38
2023-01-17T05:14:42.510Z,171.20
2023-01-17T05:17:11.457Z,310.45
2023-01-17T05:19:46.908Z,179.98
2023-01-17T05:25:36.382Z,185.40
2023-01-17T05:28:12.734Z,157.55
2023-01-17T05:30:41.843Z,180.32
2023-01-17T05:34:21.373Z,242.48
2023-01-17T05:36:59.050Z,181.18
2023-01-17T05:40:30.866Z,203.70
2023-01-17T05:43:04.005Z,263.30
2023-01-17T05:45:37.531Z,242.32
2023-01-17T05:48:06.727Z,178.82
2023-01-17T05:50:36.686Z,171.63
2023-01-17T05:53:11.650Z,168.05
2023-01-17T05:55:46.137Z,140.82
2023-01-17T05:58:17.294Z,157.77
2023-01-17T06:00:50.593Z,392.65
2023-01-17T06:03:19.751Z,152.55
2023-01-17T06:06:02.037Z,170.43
2023-01-17T06:08:32.016Z,162.00
2023-01-17T06:11:00.515Z,184.80
2023-01-17T06:13:29.044Z,194.50
2023-01-17T06:16:02.809Z,152.93
2023-01-17T06:18:32.109Z,195.15
2023-01-17T06:21:00.648Z,167.63
2023-01-17T06:23:29.351Z,159.23
2023-01-17T06:26:02.907Z,171.98
2023-01-17T06:28:31.811Z,308.65
2023-01-17T06:31:00.904Z,151.23
2023-01-17T06:33:29.523Z,168.80
2023-01-17T06:35:58.504Z,155.32
2023-01-17T06:38:27.684Z,146.30
2023-01-17T06:40:58.490Z,276.65
2023-01-17T06:43:28.779Z,267.20
2023-01-17T06:45:57.282Z,231.52
2023-01-17T06:48:25.805Z,192.85
2023-01-17T06:50:54.648Z,232.85
2023-01-17T06:53:23.136Z,175.40
2023-01-17T06:55:52.631Z,232.95
2023-01-17T06:58:21.130Z,303.63
2023-01-17T07:00:51.284Z,234.20
2023-01-17T07:03:21.713Z,254.68
2023-01-17T07:05:50.519Z,230.43
2023-01-17T07:08:19.729Z,223.65
2023-01-17T07:10:49.476Z,191.98
2023-01-17T07:13:17.991Z,322.05
2023-01-17T07:15:46.704Z,193.68
2023-01-17T07:18:20.553Z,186.45
2023-01-17T07:20:50.815Z,374.13
2023-01-17T07:23:19.394Z,149.30
2023-01-17T07:25:53.434Z,162.68
2023-01-17T07:28:22.309Z,313.33
2023-01-17T07:30:51.028Z,156.45
2023-01-17T07:33:21.323Z,143.32
2023-01-17T07:35:49.945Z,164.55
2023-01-17T07:38:20.216Z,128.95
2023-01-17T07:40:48.876Z,316.67
2023-01-17T07:43:17.580Z,130.10
2023-01-17T07:45:49.237Z,113.80
2023-01-17T07:48:18.334Z,128.32
2023-01-17T07:50:53.644Z,144.90
2023-01-17T07:53:23.014Z,113.53
2023-01-17T07:55:51.503Z,126.65
2023-01-17T07:58:20.110Z,127.30
2023-01-17T08:00:48.738Z,245.75
2023-01-17T08:03:18.680Z,133.15
2023-01-17T08:05:57.538Z,252.32
2023-01-17T08:08:26.338Z,112.22
2023-01-17T08:10:54.853Z,134.45
2023-01-17T08:13:23.593Z,145.02
2023-01-17T08:15:54.491Z,155.98
2023-01-17T08:18:23.039Z,162.63
2023-01-17T08:20:53.073Z,408.15
2023-01-17T08:23:21.741Z,143.85
2023-01-17T08:25:50.473Z,159.48
2023-01-17T08:28:19.784Z,149.88
2023-01-17T08:30:48.452Z,122.90
2023-01-17T08:33:17.174Z,116.50
2023-01-17T08:35:55.055Z,243.60
2023-01-17T08:38:24.458Z,188.90
2023-01-17T08:40:53.068Z,67.72
2023-01-17T08:43:21.488Z,60.70
2023-01-17T08:45:50.540Z,52.05
2023-01-17T08:48:19.071Z,47.72
2023-01-17T08:50:47.661Z,48.20
2023-01-17T08:53:18.228Z,44.45
2023-01-17T08:55:46.783Z,44.75
2023-01-17T08:58:15.365Z,111.82
2023-01-17T09:00:44.229Z,43.20
2023-01-17T09:03:14.585Z,77.30
2023-01-17T09:05:43.200Z,40.05
2023-01-17T09:08:11.777Z,33.13
2023-01-17T09:10:41.979Z,33.28
2023-01-17T09:13:10.598Z,32.28
2023-01-17T09:15:39.262Z,33.05
2023-01-17T09:18:08.091Z,34.08
2023-01-17T09:20:36.538Z,50.00
2023-01-17T09:23:05.095Z,136.80
2023-01-17T09:25:33.613Z,32.13
2023-01-17T09:28:03.595Z,41.33
2023-01-17T09:30:32.211Z,30.60
2023-01-17T09:33:00.666Z,32.13
2023-01-17T09:35:29.289Z,77.28
2023-01-17T09:37:58.278Z,61.83
2023-01-17T09:40:27.250Z,41.30
2023-01-17T09:43:01.378Z,31.98
2023-01-17T09:45:33.457Z,36.53
2023-01-17T09:48:02.417Z,32.88
2023-01-17T09:50:33.160Z,37.60
2023-01-17T09:53:03.621Z,36.95
2023-01-17T09:55:38.121Z,49.05
2023-01-17T09:58:11.689Z,33.75
2023-01-17T10:00:53.704Z,32.38
2023-01-17T10:03:40.384Z,30.08
2023-01-17T10:06:18.061Z,45.25
2023-01-17T10:09:00.481Z,23.73
2023-01-17T10:11:36.092Z,42.22
2023-01-17T10:14:20.181Z,30.10
2023-01-17T10:16:56.236Z,25.13
2023-01-17T10:19:42.394Z,94.18
2023-01-17T10:22:31.023Z,25.08
2023-01-17T10:25:16.843Z,50.95
2023-01-17T10:27:49.304Z,25.40
2023-01-17T10:30:22.792Z,29.83
2023-01-17T10:32:52.904Z,27.00
2023-01-17T10:35:25.007Z,32.13
2023-01-17T10:37:56.862Z,28.23
2023-01-17T10:40:33.139Z,25.35
2023-01-17T10:43:06.368Z,118.75
2023-01-17T10:45:40.997Z,46.33
2023-01-17T10:50:49.231Z,48.20
2023-01-17T10:53:26.937Z,25.50
2023-01-17T10:55:55.960Z,25.42
2023-01-17T10:58:24.500Z,26.42
2023-01-17T11:00:58.639Z,33.33
2023-01-17T11:03:29.006Z,29.92
2023-01-17T11:06:17.742Z,45.08
2023-01-17T11:08:54.247Z,30.13
2023-01-17T11:11:24.987Z,57.28
2023-01-17T11:13:55.071Z,52.78
2023-01-17T11:16:27.550Z,25.88
2023-01-17T11:19:09.593Z,30.23
2023-01-17T11:21:39.782Z,198.00
2023-01-17T11:24:13.587Z,167.43
2023-01-17T11:26:49.797Z,105.55
2023-01-17T11:29:34.688Z,30.58
2023-01-17T11:32:28.322Z,31.35
2023-01-17T11:35:18.475Z,23.80
2023-01-17T11:37:51.636Z,46.88
2023-01-17T11:40:27.381Z,27.48
2023-01-17T11:43:07.477Z,61.60
2023-01-17T11:45:37.103Z,37.95
2023-01-17T11:48:13.666Z,27.27
2023-01-17T11:50:45.560Z,30.60
2023-01-17T11:53:43.151Z,28.85
2023-01-17T12:08:39.965Z,26.90
2023-01-17T12:15:12.089Z,79.15
2023-01-17T12:18:00.260Z,28.25
2023-01-17T12:20:35.832Z,53.35
2023-01-17T12:23:16.172Z,43.60
2023-01-17T12:25:57.650Z,84.65
2023-01-17T12:28:47.331Z,24.20
2023-01-17T12:31:25.181Z,32.75
2023-01-17T12:33:56.220Z,167.77
2023-01-17T12:36:39.110Z,58.95
2023-01-17T12:39:12.014Z,208.35
2023-01-17T12:41:49.993Z,28.02
2023-01-17T12:44:20.085Z,32.20
2023-01-17T12:46:54.820Z,25.10
2023-01-17T12:49:31.967Z,27.23
2023-01-17T12:52:06.691Z,81.85
2023-01-17T12:57:12.096Z,35.10
2023-01-17T12:59:46.142Z,235.52
2023-01-17T13:02:23.765Z,26.95
2023-01-17T13:04:58.733Z,34.80
2023-01-17T13:07:33.420Z,30.77
2023-01-17T13:10:05.499Z,46.15
2023-01-17T13:12:35.073Z,53.72
2023-01-17T13:15:07.145Z,31.55
2023-01-17T13:17:44.946Z,37.10
2023-01-17T13:20:24.005Z,24.55
2023-01-17T13:22:55.060Z,190.10
2023-01-17T13:25:39.407Z,33.38
2023-01-17T13:28:27.713Z,84.40
2023-01-17T13:31:34.104Z,24.95
2023-01-17T13:34:27.098Z,25.92
2023-01-17T13:37:06.003Z,26.60
2023-01-17T13:39:51.217Z,44.85
2023-01-17T13:42:25.630Z,29.83
2023-01-17T13:44:54.113Z,158.32
2023-01-17T13:47:41.409Z,32.35
2023-01-17T13:50:42.733Z,29.15
2023-01-17T13:53:54.990Z,84.75
2023-01-17T13:56:42.499Z,26.38
2023-01-17T13:59:36.974Z,61.85
2023-01-17T14:02:08.001Z,22.30
2023-01-17T14:05:14.024Z,57.65
2023-01-17T14:07:47.552Z,25.63
2023-01-17T14:10:34.812Z,32.42
2023-01-17T14:13:06.153Z,87.15
2023-01-17T14:15:36.290Z,28.75
2023-01-17T14:18:37.551Z,25.88
2023-01-17T14:21:23.005Z,26.67
2023-01-17T14:24:22.018Z,26.75
2023-01-17T14:27:01.968Z,25.60
2023-01-17T14:30:22.669Z,32.13
2023-01-17T14:33:11.879Z,24.90
2023-01-17T14:35:41.949Z,64.22
2023-01-17T14:38:20.264Z,28.38
2023-01-17T14:40:53.088Z,219.02
2023-01-17T14:43:33.915Z,38.45
2023-01-17T14:46:05.383Z,98.47
2023-01-17T14:49:00.676Z,25.30
2023-01-17T14:51:42.084Z,29.52
2023-01-17T14:54:23.145Z,58.90
2023-01-17T14:56:51.772Z,25.00
2023-01-17T14:59:27.182Z,107.47
2023-01-17T15:02:08.761Z,60.15
2023-01-17T15:04:39.832Z,89.32
2023-01-17T15:07:20.214Z,27.50
2023-01-17T15:09:49.151Z,105.55
2023-01-17T15:12:19.595Z,194.25
2023-01-17T15:14:48.507Z,89.97
2023-01-17T15:17:21.791Z,40.95
2023-01-17T15:19:53.118Z,34.25
2023-01-17T15:22:22.089Z,33.70
2023-01-17T15:24:51.589Z,141.65
2023-01-17T15:27:20.256Z,29.85
2023-01-17T15:29:49.131Z,81.75
2023-01-17T15:32:23.024Z,41.95
2023-01-17T15:34:57.215Z,230.38
2023-01-17T15:37:30.150Z,33.53
2023-01-17T15:40:07.228Z,200.75
2023-01-17T15:42:38.601Z,254.57
2023-01-17T15:45:11.793Z,70.75
2023-01-17T15:47:41.882Z,32.67
2023-01-17T15:50:36.603Z,103.55
2023-01-17T15:53:09.043Z,28.08
2023-01-17T15:55:38.717Z,34.65
2023-01-17T15:58:23.054Z,295.35
2023-01-17T16:00:51.606Z,36.67
2023-01-17T16:03:25.148Z,31.95
2023-01-17T16:05:56.841Z,33.55
2023-01-17T16:08:32.044Z,48.17
2023-01-17T16:11:02.992Z,35.30
2023-01-17T16:13:33.050Z,28.13
2023-01-17T16:16:19.372Z,58.40
2023-01-17T16:18:50.800Z,29.02
2023-01-17T16:21:21.844Z,26.85
2023-01-17T16:23:51.084Z,154.55
2023-01-17T16:26:20.683Z,30.95
2023-01-17T16:28:50.131Z,154.98
2023-01-17T16:31:19.180Z,25.08
2023-01-17T16:33:51.117Z,220.88
2023-01-17T16:36:21.211Z,78.97
2023-01-17T16:38:51.593Z,47.80
2023-01-17T16:41:20.741Z,27.60
2023-01-17T16:44:02.330Z,35.17
2023-01-17T16:46:38.529Z,29.98
2023-01-17T16:49:09.626Z,121.18
2023-01-17T16:51:38.791Z,72.80
2023-01-17T16:54:10.779Z,31.10
2023-01-17T16:56:40.645Z,36.40
2023-01-17T16:59:13.672Z,93.18
2023-01-17T17:01:50.570Z,29.55
2023-01-17T17:04:24.253Z,26.65
2023-01-17T17:06:53.042Z,48.97
2023-01-17T17:09:22.403Z,206.18
2023-01-17T17:11:51.175Z,25.23
2023-01-17T17:14:20.563Z,184.75
2023-01-17T17:16:52.160Z,22.10
2023-01-17T17:19:25.578Z,127.95
2023-01-17T17:21:55.059Z,23.88
2023-01-17T17:24:25.313Z,35.33
2023-01-17T17:26:54.195Z,49.40
2023-01-17T17:29:23.491Z,75.63
2023-01-17T17:31:53.974Z,24.98
2023-01-17T17:34:28.264Z,24.83
2023-01-17T17:37:29.652Z,32.00
2023-01-17T17:40:00.868Z,28.30
2023-01-17T17:42:29.597Z,26.38
2023-01-17T17:44:58.099Z,23.08
2023-01-17T17:47:26.681Z,30.45
2023-01-17T17:49:58.997Z,156.07
2023-01-17T17:52:28.582Z,48.83
2023-01-17T17:55:00.804Z,36.22
2023-01-17T17:57:30.771Z,55.80
2023-01-17T18:00:01.816Z,59.28
2023-01-17T18:02:31.837Z,89.80
2023-01-17T18:05:03.098Z,82.75
2023-01-17T18:07:35.534Z,83.35
2023-01-17T18:10:06.361Z,103.05
2023-01-17T18:12:35.451Z,105.10
2023-01-17T18:15:04.251Z,101.82
2023-01-17T18:17:33.343Z,97.68
2023-01-17T18:20:08.019Z,259.02
2023-01-17T18:25:12.709Z,126.15
2023-01-17T18:27:54.603Z,99.63
2023-01-17T18:30:27.567Z,118.95
2023-01-17T18:32:56.100Z,111.25
2023-01-17T18:35:26.229Z,118.82
2023-01-17T18:37:54.903Z,125.93
2023-01-17T18:40:23.915Z,113.10
2023-01-17T18:43:14.100Z,126.78
2023-01-17T18:45:42.891Z,116.50
2023-01-17T18:48:12.620Z,106.65
2023-01-17T18:50:43.070Z,115.47
2023-01-17T18:53:11.710Z,118.45
2023-01-17T18:55:40.109Z,119.30
2023-01-17T18:58:09.152Z,206.98
2023-01-17T19:00:37.964Z,124.15
2023-01-17T19:03:06.439Z,222.38
2023-01-17T19:05:37.276Z,154.95
2023-01-17T19:08:07.513Z,136.10
2023-01-17T19:10:36.143Z,147.30
2023-01-17T19:13:04.964Z,138.98
2023-01-17T19:15:34.257Z,124.03
2023-01-17T19:18:03.387Z,117.63
2023-01-17T19:20:32.739Z,133.07
2023-01-17T19:23:01.746Z,136.98
2023-01-17T19:25:32.092Z,141.40
2023-01-17T19:28:01.159Z,132.60
2023-01-17T19:30:29.954Z,141.32
2023-01-17T19:32:58.537Z,146.90
2023-01-17T19:35:27.507Z,134.38
2023-01-17T19:37:56.648Z,124.28
2023-01-17T19:40:27.084Z,122.07
2023-01-17T19:42:57.618Z,144.18
2023-01-17T19:45:26.692Z,139.70
2023-01-17T19:47:55.614Z,139.00
2023-01-17T19:50:24.673Z,135.68
2023-01-17T19:52:53.409Z,117.40
2023-01-17T19:55:25.808Z,180.32
2023-01-17T19:57:55.773Z,134.60
2023-01-17T20:00:30.200Z,125.05
2023-01-17T20:05:28.458Z,139.95
2023-01-17T20:07:57.572Z,131.20
2023-01-17T20:10:26.570Z,167.73
2023-01-17T20:12:55.608Z,145.82
2023-01-17T20:15:26.840Z,141.45
2023-01-17T20:18:08.729Z,148.57
2023-01-17T20:20:46.125Z,156.65
2023-01-17T20:23:28.091Z,158.57
2023-01-17T20:26:16.828Z,136.18
2023-01-17T20:28:47.050Z,136.25
2023-01-17T20:31:19.182Z,138.40
2023-01-17T20:34:04.122Z,130.63
2023-01-17T20:36:33.361Z,152.75
2023-01-17T20:39:04.756Z,165.75
2023-01-17T20:41:39.137Z,160.15
2023-01-17T20:44:27.235Z,128.95
2023-01-17T20:47:03.902Z,149.05
2023-01-17T20:50:19.930Z,148.65
2023-01-17T20:53:21.456Z,143.90
2023-01-17T20:55:58.077Z,141.38
2023-01-17T20:58:31.003Z,150.65
2023-01-17T21:01:05.076Z,148.00
2023-01-17T21:03:40.968Z,156.38
2023-01-17T21:06:25.161Z,164.57
2023-01-17T21:09:15.630Z,173.33
2023-01-17T21:11:52.391Z,156.93
2023-01-17T21:14:29.903Z,147.02
2023-01-17T21:17:07.867Z,155.15
2023-01-17T21:19:43.707Z,164.05
2023-01-17T21:22:27.774Z,179.95
2023-01-17T21:25:18.861Z,145.07
2023-01-17T21:27:58.897Z,173.57
2023-01-17T21:31:12.750Z,180.05
2023-01-17T21:33:52.089Z,158.43
2023-01-17T21:36:44.068Z,141.60
2023-01-17T21:39:20.109Z,180.60
2023-01-17T21:42:15.078Z,154.52
2023-01-17T21:45:28.878Z,181.57
2023-01-17T21:48:02.260Z,133.88
2023-01-17T21:50:52.887Z,145.90
2023-01-17T21:53:43.796Z,130.93
2023-01-17T21:56:43.923Z,137.38
2023-01-17T21:59:13.081Z,143.80
2023-01-17T22:01:45.565Z,108.95
2023-01-17T22:04:19.025Z,172.20
2023-01-17T22:06:59.963Z,138.30
2023-01-17T22:09:36.469Z,167.65
2023-01-17T22:12:05.507Z,129.25
2023-01-17T22:14:36.877Z,200.02
2023-01-17T22:17:05.500Z,135.13
2023-01-17T22:19:34.882Z,214.02
2023-01-17T22:22:04.212Z,221.70
2023-01-17T22:24:34.760Z,276.77
2023-01-17T22:27:03.453Z,261.50
2023-01-17T22:29:34.350Z,269.33
2023-01-17T22:32:03.317Z,235.68
2023-01-17T22:34:32.180Z,213.15
2023-01-17T22:37:02.550Z,180.23
2023-01-17T22:39:31.200Z,192.32
2023-01-17T22:42:01.315Z,265.33
2023-01-17T22:44:30.262Z,330.33
2023-01-17T22:46:59.183Z,265.63
2023-01-17T22:49:27.830Z,290.95
2023-01-17T22:51:56.540Z,263.50
2023-01-17T22:54:25.659Z,306.85
2023-01-17T22:56:54.584Z,286.48
2023-01-17T22:59:25.155Z,309.10
2023-01-17T23:01:55.741Z,253.07
2023-01-17T23:04:24.688Z,308.10
2023-01-17T23:06:56.326Z,341.17
2023-01-17T23:09:25.002Z,337.75
2023-01-17T23:11:55.328Z,278.55
2023-01-17T23:14:27.173Z,320.20
2023-01-17T23:17:17.900Z,308.27
2023-01-17T23:19:48.106Z,353.73
2023-01-17T23:22:19.567Z,254.05
2023-01-17T23:24:51.116Z,321.40
2023-01-17T23:27:39.523Z,304.27
2023-01-17T23:30:12.398Z,270.73
2023-01-17T23:32:41.688Z,261.48
2023-01-17T23:35:10.290Z,244.15
2023-01-17T23:38:00.000Z,184.57
2023-01-17T23:40:39.694Z,170.43
2023-01-17T23:43:24.237Z,242.98
2023-01-17T23:45:59.177Z,193.40
2023-01-17T23:48:28.758Z,137.52
2023-01-17T23:51:14.473Z,236.98
2023-01-17T23:53:44.798Z,213.32
2023-01-17T23:56:21.084Z,187.73
2023-01-17T23:58:54.114Z,177.23
